Time;durP1;ratioP1;P1;durP2;ratioP2;P2;SDS_P1;SDS_P2;PMS_P1;PMS_P2;Temp;Humidity;BMP_temperature;BMP_pressure;BME280_temperature;BME280_humidity;BME280_pressure;Samples;Min_cycle;Max_cycle;Signal;HPM_P1;HPM_P2
2022/02/12 00:00:20;;;;;;;10.43;4.13;;;;;;;10.45;70.47;102121.78;2064878;28;20062;-73
2022/02/12 00:01:23;;;;;;;12.75;5.05;;;;;;;10.45;70.51;102121.78;2073210;28;20046;-73
2022/02/12 00:02:24;;;;;;;13.48;6.22;;;;;;;10.46;70.73;102120.97;2073764;28;20062;-73
2022/02/12 00:03:27;;;;;;;12.30;7.07;;;;;;;10.48;70.91;102114.00;2065313;28;20093;-73
2022/02/12 00:04:29;;;;;;;14.73;7.85;;;;;;;10.51;70.81;102122.03;2056482;28;20103;-73
2022/02/12 00:05:31;;;;;;;;;;;;;;;10.55;70.80;102118.69;2065294;28;20034;-73
2022/02/12 00:06:32;;;;;;;7.28;3.55;;;;;;;10.53;70.84;102117.72;2057128;28;19957;-73
2022/02/12 00:07:35;;;;;;;;;;;;;;;10.55;70.82;102119.56;2057301;28;20125;-73
2022/02/12 00:08:37;;;;;;;9.95;2.70;;;;;;;10.53;70.83;102123.00;2057414;28;19922;-73
2022/02/12 00:09:39;;;;;;;7.32;3.67;;;;;;;10.51;70.64;102129.94;2053714;28;20043;-73
2022/02/12 00:10:41;;;;;;;;;;;;;;;10.52;70.63;102121.19;2056258;28;20157;-73
2022/02/12 00:11:43;;;;;;;4.80;2.13;;;;;;;10.48;70.62;102125.47;2048904;28;19978;-73
2022/02/12 00:12:45;;;;;;;4.30;2.53;;;;;;;10.48;70.72;102119.28;2057580;28;20129;-73
2022/02/12 00:13:48;;;;;;;9.80;2.90;;;;;;;10.47;70.72;102121.03;2064461;28;20499;-74
2022/02/12 00:14:49;;;;;;;3.90;2.08;;;;;;;10.48;70.68;102120.19;2064622;28;20122;-73
2022/02/12 00:15:54;;;;;;;11.65;2.90;;;;;;;10.48;70.78;102120.19;2064505;28;20046;-74
2022/02/12 00:16:56;;;;;;;7.55;2.70;;;;;;;10.47;70.58;102118.38;2064516;28;20051;-73
2022/02/12 00:17:58;;;;;;;8.02;3.38;;;;;;;10.47;70.55;102122.75;2057007;28;20045;-73
2022/02/12 00:19:00;;;;;;;9.43;3.65;;;;;;;10.47;70.75;102122.75;2065007;28;20039;-73
2022/02/12 00:20:03;;;;;;;10.93;4.07;;;;;;;10.44;70.67;102112.97;2056954;28;20090;-73
2022/02/12 00:21:05;;;;;;;11.23;4.97;;;;;;;10.41;70.78;102114.59;2057324;28;20047;-73
2022/02/12 00:22:07;;;;;;;13.18;7.13;;;;;;;10.36;70.87;102118.00;2065136;28;20049;-73
2022/02/12 00:23:09;;;;;;;;;;;;;;;10.35;70.66;102118.81;2065651;28;20052;-73
2022/02/12 00:24:10;;;;;;;21.85;9.57;;;;;;;10.31;70.83;102124.81;2057219;28;19922;-73
2022/02/12 00:25:13;;;;;;;;;;;;;;;10.34;70.88;102124.03;2060038;28;20117;-74
2022/02/12 00:26:16;;;;;;;13.32;5.35;;;;;;;10.33;70.87;102120.50;2073188;28;19926;-73
2022/02/12 00:27:19;;;;;;;11.10;5.40;;;;;;;10.33;70.95;102120.50;2072865;28;20042;-74
2022/02/12 00:28:21;;;;;;;7.50;4.10;;;;;;;10.34;70.92;102117.03;2073185;28;20046;-73
2022/02/12 00:29:24;;;;;;;12.80;3.88;;;;;;;10.37;70.76;102125.03;2081576;28;20072;-73
2022/02/12 00:30:27;;;;;;;9.00;4.40;;;;;;;10.39;70.83;102117.19;2072867;28;20113;-74
2022/02/12 00:31:32;;;;;;;14.40;7.45;;;;;;;10.42;70.92;102116.41;2073154;28;20413;-73
2022/02/12 00:32:34;;;;;;;15.40;8.48;;;;;;;10.41;70.80;102117.25;2073118;28;20125;-73
2022/02/12 00:33:36;;;;;;;14.75;8.20;;;;;;;10.41;70.86;102118.16;2065164;28;20117;-73
2022/02/12 00:34:41;;;;;;;22.42;14.30;;;;;;;10.41;70.52;102114.59;2064720;28;20053;-73
2022/02/12 00:35:44;;;;;;;10.65;5.50;;;;;;;10.41;70.71;102117.25;2064678;28;20439;-74
2022/02/12 00:36:46;;;;;;;12.10;6.32;;;;;;;10.42;70.87;102116.41;2071973;28;20569;-73
2022/02/12 00:37:48;;;;;;;;;;;;;;;10.42;70.69;102119.06;2082190;28;20470;-73
2022/02/12 00:38:51;;;;;;;8.95;4.70;;;;;;;10.37;70.77;102119.75;2081366;28;19956;-73
2022/02/12 00:39:53;;;;;;;12.48;5.18;;;;;;;10.34;70.67;102122.28;2081735;28;20377;-73
2022/02/12 00:40:55;;;;;;;10.00;4.80;;;;;;;10.33;70.59;102125.78;2071613;28;20534;-74
2022/02/12 00:41:58;;;;;;;9.85;5.50;;;;;;;10.32;70.51;102115.16;2071491;28;20041;-73
2022/02/12 00:43:01;;;;;;;10.82;4.93;;;;;;;10.29;70.35;102118.59;2081327;28;20057;-73
2022/02/12 00:44:03;;;;;;;8.85;4.22;;;;;;;10.28;70.37;102115.88;2072535;28;20470;-73
2022/02/12 00:45:07;;;;;;;25.00;8.35;;;;;;;10.26;70.35;102120.19;2073462;28;20402;-73
2022/02/12 00:46:10;;;;;;;17.42;6.00;;;;;;;10.16;70.49;102115.38;2072586;28;20050;-73
2022/02/12 00:47:14;;;;;;;10.60;4.50;;;;;;;10.09;70.65;102119.53;2064949;28;20431;-73
2022/02/12 00:48:16;;;;;;;12.85;3.72;;;;;;;10.02;70.63;102119.22;2065160;28;20449;-73
2022/02/12 00:49:18;;;;;;;9.95;3.28;;;;;;;9.94;70.54;102119.81;2072431;28;20038;-73
2022/02/12 00:50:20;;;;;;;6.72;3.58;;;;;;;9.90;70.70;102120.53;2064824;28;20490;-73
2022/02/12 00:51:23;;;;;;;9.30;4.07;;;;;;;9.86;70.89;102122.97;2064049;28;20035;-73
2022/02/12 00:52:27;;;;;;;5.82;3.33;;;;;;;9.82;70.93;102115.78;2072450;28;20042;-73
2022/02/12 00:53:29;;;;;;;8.50;4.80;;;;;;;9.79;71.10;102118.28;2064304;28;20068;-73
2022/02/12 00:54:32;;;;;;;13.10;6.78;;;;;;;9.76;71.23;102116.44;2064566;28;20121;-74
2022/02/12 00:55:36;;;;;;;14.05;8.05;;;;;;;9.79;71.17;102120.91;2063973;28;20437;-73
2022/02/12 00:56:37;;;;;;;13.40;8.20;;;;;;;9.82;71.18;102110.50;2064553;28;20038;-73
2022/02/12 00:57:40;;;;;;;13.75;9.18;;;;;;;9.85;71.03;102118.53;2054860;28;20438;-73
2022/02/12 00:58:41;;;;;;;12.93;8.13;;;;;;;9.89;70.87;102120.47;2056511;28;20118;-73
2022/02/12 00:59:44;;;;;;;16.35;7.90;;;;;;;9.91;70.76;102126.72;2056610;28;20446;-74
2022/02/12 01:00:46;;;;;;;27.83;11.90;;;;;;;9.88;70.78;102121.31;2056932;28;20074;-74
2022/02/12 01:01:48;;;;;;;26.77;10.15;;;;;;;9.85;70.76;102115.88;2071449;28;20103;-73
2022/02/12 01:02:51;;;;;;;16.77;6.80;;;;;;;9.83;70.64;102114.94;2080649;28;20054;-73
2022/02/12 01:03:54;;;;;;;13.48;4.75;;;;;;;9.82;70.68;102121.06;2080820;28;20125;-73
2022/02/12 01:04:57;;;;;;;15.63;6.95;;;;;;;9.83;70.62;102125.50;2081371;28;20067;-73
2022/02/12 01:05:59;;;;;;;23.83;9.40;;;;;;;9.84;70.71;102117.66;2080779;28;20512;-73
2022/02/12 01:07:01;;;;;;;31.25;10.65;;;;;;;9.84;70.61;102120.28;2080504;28;20457;-73
2022/02/12 01:08:03;;;;;;;18.10;5.82;;;;;;;9.86;70.58;102117.69;2072265;28;20042;-73
2022/02/12 01:09:06;;;;;;;9.55;4.68;;;;;;;9.88;70.31;102116.03;2064381;28;20466;-73
2022/02/12 01:10:08;;;;;;;12.98;5.38;;;;;;;9.86;70.38;102108.03;2064554;28;20411;-73
2022/02/12 01:11:13;;;;;;;17.90;6.03;;;;;;;9.84;70.32;102117.66;2056905;28;20049;-73
2022/02/12 01:12:17;;;;;;;16.77;6.43;;;;;;;9.86;70.52;102115.06;2064481;28;20120;-73
2022/02/12 01:13:19;;;;;;;12.70;6.50;;;;;;;9.85;70.25;102118.53;2063392;28;20113;-74
2022/02/12 01:14:23;;;;;;;16.40;7.28;;;;;;;9.84;70.32;102114.13;2072741;28;20038;-73
2022/02/12 01:15:24;;;;;;;22.85;8.38;;;;;;;9.85;70.04;102110.59;2072531;28;20488;-73
2022/02/12 01:16:27;;;;;;;24.30;8.70;;;;;;;9.84;70.25;102112.38;2064287;28;20038;-73
2022/02/12 01:17:30;;;;;;;29.45;11.38;;;;;;;9.86;70.02;102112.41;2056307;28;20370;-73
2022/02/12 01:18:34;;;;;;;28.17;9.18;;;;;;;9.85;69.96;102113.25;2064881;28;20038;-74
2022/02/12 01:19:36;;;;;;;17.15;7.22;;;;;;;9.83;70.07;102113.22;2064850;28;20410;-73
2022/02/12 01:20:39;;;;;;;11.65;4.30;;;;;;;9.83;69.91;102112.31;2063184;28;20038;-73
2022/02/12 01:21:40;;;;;;;7.20;3.95;;;;;;;9.80;69.79;102112.16;2064546;28;20038;-73
2022/02/12 01:22:43;;;;;;;11.85;5.15;;;;;;;9.78;70.10;102119.13;2064468;28;20070;-74
2022/02/12 01:23:46;;;;;;;14.75;5.53;;;;;;;9.73;69.87;102107.47;2056939;28;20121;-73
2022/02/12 01:24:49;;;;;;;11.05;5.03;;;;;;;9.65;69.96;102108.94;2064419;28;20046;-73
2022/02/12 01:25:51;;;;;;;9.63;3.55;;;;;;;9.58;70.17;102107.78;2072658;28;20117;-73
2022/02/12 01:26:56;;;;;;;11.65;3.72;;;;;;;9.52;70.47;102107.50;2072600;28;20133;-72
2022/02/12 01:27:57;;;;;;;8.18;3.20;;;;;;;9.46;70.42;102100.25;2072464;28;20046;-73
2022/02/12 01:29:00;;;;;;;9.35;4.30;;;;;;;9.43;70.62;102104.50;2072156;28;20054;-73
2022/02/12 01:30:01;;;;;;;7.35;3.50;;;;;;;9.39;70.65;102105.19;2072757;28;20042;-73
2022/02/12 01:31:04;;;;;;;5.97;3.28;;;;;;;9.37;70.76;102101.63;2072391;28;20054;-73
2022/02/12 01:32:07;;;;;;;4.75;2.95;;;;;;;9.37;70.75;102105.16;2072488;28;21177;-74
2022/02/12 01:33:09;;;;;;;10.13;3.83;;;;;;;9.36;70.68;102100.72;2073147;28;20618;-73
2022/02/12 01:34:13;;;;;;;7.85;3.55;;;;;;;9.38;70.63;102095.50;2063832;28;20039;-74
2022/02/12 01:35:15;;;;;;;13.77;5.60;;;;;;;9.39;70.65;102097.28;2065361;28;20046;-73
2022/02/12 01:36:18;;;;;;;15.13;6.57;;;;;;;9.37;70.44;102098.97;2081099;28;20040;-73
2022/02/12 01:37:20;;;;;;;9.40;5.30;;;;;;;9.36;70.47;102092.81;2081300;28;20088;-73
2022/02/12 01:38:22;;;;;;;;;;;;;;;9.35;70.42;102096.28;2072516;28;20536;-73
2022/02/12 01:39:24;;;;;;;10.90;4.72;;;;;;;9.33;70.41;102105.84;2072490;28;20419;-73
2022/02/12 01:40:27;;;;;;;;;;;;;;;9.33;70.56;102102.31;2072398;28;20500;-74
2022/02/12 01:41:29;;;;;;;10.00;3.20;;;;;;;9.28;70.61;102109.13;2072447;28;19929;-73
2022/02/12 01:42:51;;;;;;;;;;;;;;;9.25;70.84;102098.47;2068020;28;20132;-73
2022/02/12 01:43:53;;;;;;;10.20;5.07;;;;;;;9.18;70.98;102105.22;2066832;28;20296;-73
2022/02/12 01:44:55;;;;;;;;;;;;;;;9.16;71.02;102106.88;2072669;28;20482;-73
2022/02/12 01:45:56;;;;;;;15.10;8.32;;;;;;;9.12;71.20;102104.94;2080200;28;19928;-74
2022/02/12 01:46:59;;;;;;;11.73;4.22;;;;;;;9.12;71.19;102100.56;2072130;28;20556;-73
2022/02/12 01:48:01;;;;;;;12.35;5.18;;;;;;;9.13;71.16;102104.09;2064370;28;20137;-73
2022/02/12 01:49:04;;;;;;;17.10;7.20;;;;;;;9.16;71.22;102102.50;2072516;28;20580;-73
2022/02/12 01:50:08;;;;;;;9.20;6.18;;;;;;;9.20;71.09;102108.78;2064099;28;20050;-73
2022/02/12 01:51:11;;;;;;;9.18;4.80;;;;;;;9.23;71.28;102108.03;2056994;28;20043;-73
2022/02/12 01:52:14;;;;;;;13.25;6.78;;;;;;;9.25;71.10;102109.91;2064069;28;20475;-73
2022/02/12 01:53:17;;;;;;;11.50;6.70;;;;;;;9.24;71.35;102094.94;2072653;28;20046;-73
2022/02/12 01:54:20;;;;;;;9.15;5.30;;;;;;;9.27;71.31;102102.94;2062527;28;20097;-73
2022/02/12 01:55:21;;;;;;;11.15;6.05;;;;;;;9.31;71.26;102098.72;2056744;28;20130;-74
2022/02/12 01:56:25;;;;;;;7.90;4.70;;;;;;;9.32;71.26;102106.66;2056533;28;20538;-73
2022/02/12 01:57:26;;;;;;;9.40;4.70;;;;;;;9.34;71.09;102105.00;2056865;28;20053;-73
2022/02/12 01:58:29;;;;;;;9.45;5.07;;;;;;;9.36;71.07;102097.16;2072294;28;20038;-73
2022/02/12 01:59:31;;;;;;;8.60;4.43;;;;;;;9.37;71.09;102104.25;2072017;28;20069;-73
2022/02/12 02:00:36;;;;;;;7.10;4.50;;;;;;;9.39;71.20;102097.28;2064471;28;20451;-73
2022/02/12 02:01:37;;;;;;;8.77;4.90;;;;;;;9.41;71.11;102100.88;2054308;28;20581;-73
2022/02/12 02:02:40;;;;;;;10.77;5.07;;;;;;;9.41;71.11;102106.16;2055956;28;20101;-73
2022/02/12 02:03:42;;;;;;;9.13;4.50;;;;;;;9.40;70.91;102100.00;2064215;28;20491;-73
2022/02/12 02:04:44;;;;;;;8.00;5.45;;;;;;;9.40;70.89;102104.34;2072321;28;20072;-73
2022/02/12 02:05:48;;;;;;;8.35;5.75;;;;;;;9.38;71.04;102096.41;2055891;28;20038;-75
2022/02/12 02:06:51;;;;;;;6.70;3.60;;;;;;;9.38;71.13;102104.31;2064400;28;20049;-73
2022/02/12 02:07:53;;;;;;;7.95;3.33;;;;;;;9.39;71.15;102099.91;2072255;28;20583;-73
2022/02/12 02:08:56;;;;;;;7.30;3.17;;;;;;;9.40;71.11;102104.34;2071964;28;20931;-73
2022/02/12 02:09:57;;;;;;;10.55;5.13;;;;;;;9.41;71.34;102101.78;2064033;28;20046;-73
2022/02/12 02:11:01;;;;;;;12.38;9.52;;;;;;;9.42;71.30;102102.69;2064006;28;20043;-73
2022/02/12 02:12:03;;;;;;;31.95;26.48;;;;;;;9.42;71.30;102111.50;2056260;28;20047;-73
2022/02/12 02:13:27;;;;;;;13.45;9.25;;;;;;;9.41;71.11;102104.44;2059083;28;20046;-73
2022/02/12 02:14:30;;;;;;;16.58;9.80;;;;;;;9.41;71.37;102107.06;2066823;28;20038;-72
2022/02/12 02:15:33;;;;;;;10.05;7.05;;;;;;;9.38;71.33;102106.97;2072590;28;20042;-73
2022/02/12 02:16:34;;;;;;;13.48;6.68;;;;;;;9.37;71.19;102106.88;2069533;28;20042;-73
2022/02/12 02:17:37;;;;;;;14.43;7.00;;;;;;;9.35;71.16;102106.81;2072477;28;21011;-73
2022/02/12 02:18:38;;;;;;;9.10;6.07;;;;;;;9.36;71.18;102103.34;2072191;28;20081;-73
2022/02/12 02:19:41;;;;;;;10.13;6.30;;;;;;;9.36;71.13;102107.72;2072739;28;20057;-73
2022/02/12 02:20:43;;;;;;;10.05;5.95;;;;;;;9.35;71.20;102106.81;2072324;28;20042;-73
2022/02/12 02:21:51;;;;;;;18.02;11.27;;;;;;;9.37;70.97;102105.16;2071348;28;20038;-74
2022/02/12 02:22:57;;;;;;;10.07;6.47;;;;;;;9.38;71.15;102106.06;2072733;28;20516;-73
2022/02/12 02:24:00;;;;;;;13.80;5.97;;;;;;;9.34;71.03;102107.63;2071884;28;20038;-73
2022/02/12 02:25:02;;;;;;;11.35;4.85;;;;;;;9.33;71.32;102105.84;2065088;28;20078;-72
2022/02/12 02:26:06;;;;;;;8.68;4.70;;;;;;;9.32;71.24;102117.22;2065837;28;20555;-73
2022/02/12 02:27:09;;;;;;;8.80;3.88;;;;;;;9.30;71.15;102108.38;2065649;28;20502;-73
2022/02/12 02:28:12;;;;;;;7.57;4.00;;;;;;;9.27;71.30;102109.94;2055882;28;20042;-73
2022/02/12 02:29:13;;;;;;;10.75;3.53;;;;;;;9.26;71.17;102113.41;2065769;28;20058;-72
2022/02/12 02:30:18;;;;;;;7.38;3.08;;;;;;;9.25;71.25;102104.63;2065323;28;20050;-73
2022/02/12 02:31:21;;;;;;;7.38;2.90;;;;;;;9.23;71.43;102118.56;2065565;28;20129;-73
2022/02/12 02:32:22;;;;;;;5.45;2.42;;;;;;;9.22;71.66;102115.03;2065355;28;20058;-73
2022/02/12 02:33:25;;;;;;;9.32;5.05;;;;;;;9.19;71.62;102110.53;2065825;28;20090;-74
2022/02/12 02:34:26;;;;;;;11.77;4.93;;;;;;;9.17;71.84;102117.47;2065388;28;20038;-73
2022/02/12 02:35:29;;;;;;;8.18;3.97;;;;;;;9.13;71.88;102112.91;2065537;28;20066;-73
2022/02/12 02:36:30;;;;;;;20.38;9.90;;;;;;;9.12;71.92;102121.63;2057688;28;20043;-73
2022/02/12 02:37:33;;;;;;;11.40;6.40;;;;;;;9.11;72.03;102121.59;2057570;28;20081;-73
2022/02/12 02:38:36;;;;;;;15.25;7.47;;;;;;;9.11;71.94;102118.94;2057732;28;20525;-73
2022/02/12 02:39:39;;;;;;;7.03;3.17;;;;;;;9.08;71.73;102119.72;2065799;28;20042;-73
2022/02/12 02:40:42;;;;;;;11.50;5.47;;;;;;;9.11;72.09;102124.22;2065694;28;20053;-73
2022/02/12 02:41:45;;;;;;;10.57;4.25;;;;;;;9.11;72.07;102118.94;2065826;28;20038;-73
2022/02/12 02:42:48;;;;;;;7.03;3.47;;;;;;;9.12;71.75;102115.50;2073664;28;20034;-73
2022/02/12 02:43:51;;;;;;;8.45;3.50;;;;;;;9.11;71.94;102119.84;2057113;28;20046;-73
2022/02/12 02:45:08;;;;;;;6.68;3.58;;;;;;;9.12;71.87;102128.66;2053039;28;20462;-73
2022/02/12 02:46:11;;;;;;;7.95;3.38;;;;;;;9.11;71.87;102121.59;2065265;28;20046;-73
2022/02/12 02:48:39;;;;;;;5.00;2.45;;;;;;;9.06;71.71;102128.38;2045886;28;20050;-73
2022/02/12 02:49:41;;;;;;;8.45;3.38;;;;;;;9.07;72.08;102132.81;2057717;28;20043;-73
2022/02/12 02:56:08;;;;;;;5.75;2.95;;;;;;;9.07;71.85;102138.06;2062143;28;20398;-73
2022/02/12 02:57:09;;;;;;;5.93;3.28;;;;;;;9.07;71.87;102140.69;2057980;28;20039;-73
2022/02/12 02:58:13;;;;;;;7.20;2.78;;;;;;;9.05;71.83;102131.84;2065364;28;20446;-73
2022/02/12 02:59:16;;;;;;;6.88;3.00;;;;;;;9.04;71.90;102141.50;2071500;28;20045;-73
2022/02/12 03:00:18;;;;;;;6.10;2.85;;;;;;;9.05;71.69;102140.66;2064997;28;20049;-74
2022/02/12 03:01:23;;;;;;;7.95;3.63;;;;;;;9.06;71.83;102141.53;2065964;28;20044;-73
2022/02/12 03:02:24;;;;;;;6.32;3.10;;;;;;;9.04;71.91;102140.59;2057388;28;20035;-73
2022/02/12 03:03:27;;;;;;;5.38;2.70;;;;;;;9.07;71.89;102152.16;2049625;28;20051;-73
2022/02/12 03:04:29;;;;;;;5.68;3.03;;;;;;;9.09;71.98;102139.03;2054761;28;20047;-73
2022/02/12 03:05:32;;;;;;;6.00;3.08;;;;;;;9.09;71.76;102145.22;2064846;28;20034;-73
2022/02/12 03:06:35;;;;;;;7.38;2.90;;;;;;;9.09;71.78;102145.22;2057323;28;20050;-73
2022/02/12 03:07:38;;;;;;;7.75;3.17;;;;;;;9.07;72.10;102146.88;2057680;28;20043;-72
2022/02/12 03:08:41;;;;;;;9.60;3.33;;;;;;;9.05;71.87;102148.56;2064976;28;20074;-73
2022/02/12 03:09:44;;;;;;;8.48;3.30;;;;;;;9.07;72.10;102148.59;2064736;28;20034;-73
2022/02/12 03:10:47;;;;;;;9.65;5.18;;;;;;;9.04;71.96;102146.75;2064773;28;20042;-73
2022/02/12 03:11:49;;;;;;;7.78;3.97;;;;;;;9.07;71.97;102151.25;2057259;28;20043;-73
2022/02/12 03:12:51;;;;;;;6.10;3.58;;;;;;;9.06;71.93;102149.44;2057132;28;20615;-73
2022/02/12 03:13:55;;;;;;;6.07;3.58;;;;;;;9.06;71.99;102146.78;2057109;28;20138;-73
2022/02/12 03:14:57;;;;;;;10.52;4.13;;;;;;;9.06;72.31;102149.44;2065377;28;20046;-73
2022/02/12 03:15:59;;;;;;;11.77;5.00;;;;;;;9.06;72.24;102146.78;2073808;28;20065;-73
2022/02/12 03:17:01;;;;;;;6.47;3.03;;;;;;;9.06;72.25;102152.06;2073704;28;20497;-73
2022/02/12 03:18:02;;;;;;;7.45;3.05;;;;;;;9.07;72.23;102152.16;2064991;28;20071;-73
2022/02/12 03:19:05;;;;;;;9.60;3.67;;;;;;;9.07;72.43;102151.25;2065158;28;20089;-72
2022/02/12 03:20:08;;;;;;;7.72;3.30;;;;;;;9.07;72.23;102152.16;2065165;28;20050;-73
2022/02/12 03:21:11;;;;;;;9.73;3.30;;;;;;;9.05;72.30;102150.28;2065549;28;20053;-73
2022/02/12 03:22:12;;;;;;;8.35;3.28;;;;;;;9.04;72.37;102156.38;2074071;28;20048;-75
2022/02/12 03:23:16;;;;;;;7.53;2.90;;;;;;;9.04;72.51;102151.13;2065058;28;20402;-73
2022/02/12 03:24:17;;;;;;;8.13;3.60;;;;;;;9.03;72.63;102150.22;2065358;28;20042;-73
2022/02/12 03:25:21;;;;;;;;;;;;;;;9.03;72.44;102150.22;2070922;28;20089;-73
2022/02/12 03:26:24;;;;;;;10.55;5.43;;;;;;;9.03;72.61;102151.94;2073372;28;19937;-73
2022/02/12 03:27:27;;;;;;;9.45;4.43;;;;;;;9.01;72.45;102149.25;2073189;28;20038;-74
2022/02/12 03:28:31;;;;;;;13.00;6.82;;;;;;;9.02;72.50;102151.03;2065624;28;20062;-75
2022/02/12 03:29:33;;;;;;;10.43;5.65;;;;;;;9.02;72.46;102147.50;2065935;28;20125;-73
2022/02/12 03:30:38;;;;;;;14.10;6.30;;;;;;;9.04;72.34;102151.13;2064242;28;20038;-73
2022/02/12 03:31:39;;;;;;;9.02;5.20;;;;;;;9.04;72.40;102145.84;2066003;28;20415;-73
2022/02/12 03:32:42;;;;;;;;;;;;;;;9.06;72.52;102147.69;2073845;28;20092;-73
2022/02/12 03:33:43;;;;;;;9.98;6.00;;;;;;;9.04;72.43;102154.66;2073177;28;20293;-73
2022/02/12 03:34:45;;;;;;;;;;;;;;;9.05;72.38;102153.84;2070722;28;20041;-74
2022/02/12 03:35:49;;;;;;;15.23;8.90;;;;;;;9.03;72.71;102159.84;2071227;28;19956;-73
2022/02/12 03:36:51;;;;;;;15.15;8.57;;;;;;;9.02;72.34;102158.94;2073140;28;20434;-73
2022/02/12 03:37:54;;;;;;;;;;;;;;;9.05;72.42;102153.84;2065643;28;20118;-73
2022/02/12 03:38:56;;;;;;;10.75;5.25;;;;;;;9.05;72.43;102158.19;2065366;28;19992;-73
2022/02/12 03:39:58;;;;;;;6.53;3.00;;;;;;;9.07;72.49;102156.50;2072289;28;20065;-73
2022/02/12 03:41:06;;;;;;;7.47;3.90;;;;;;;9.08;72.75;102151.31;2073012;28;20060;-73
2022/02/12 03:42:07;;;;;;;6.15;3.50;;;;;;;9.10;72.80;102156.66;2073461;28;20065;-74
2022/02/12 03:43:10;;;;;;;8.00;4.43;;;;;;;9.10;72.80;102156.66;2065380;28;20038;-73
2022/02/12 03:44:12;;;;;;;15.77;12.43;;;;;;;9.06;72.82;102147.69;2073258;28;20046;-73
2022/02/12 03:45:14;;;;;;;;;;;;;;;9.08;72.71;102161.84;2072804;28;20069;-74
2022/02/12 03:46:18;;;;;;;11.60;8.52;;;;;;;9.06;72.73;102157.34;2072790;28;19928;-73
2022/02/12 03:47:20;;;;;;;12.45;9.27;;;;;;;9.06;72.95;102159.97;2072925;28;20037;-73
2022/02/12 03:48:23;;;;;;;15.40;12.15;;;;;;;9.04;72.93;102151.13;2073243;28;20042;-73
2022/02/12 03:49:24;;;;;;;13.38;8.40;;;;;;;9.03;73.19;102152.84;2065255;28;20494;-73
2022/02/12 03:50:27;;;;;;;;;;;;;;;9.06;72.81;102149.44;2073644;28;20375;-73
2022/02/12 03:51:28;;;;;;;19.00;10.55;;;;;;;9.04;73.10;102153.75;2080230;28;19921;-73
2022/02/12 03:52:32;;;;;;;8.77;4.97;;;;;;;9.04;72.92;102148.50;2081257;28;20421;-73
2022/02/12 03:53:34;;;;;;;7.80;4.40;;;;;;;9.05;73.00;102155.56;2073040;28;20053;-73
2022/02/12 03:54:36;;;;;;;6.40;3.22;;;;;;;9.05;72.92;102147.66;2057503;28;20051;-73
2022/02/12 03:55:39;;;;;;;5.85;3.03;;;;;;;9.05;73.01;102152.94;2065039;28;20395;-73
2022/02/12 03:56:57;;;;;;;7.00;3.03;;;;;;;9.05;73.05;102158.19;2071789;28;20403;-73
2022/02/12 03:57:58;;;;;;;10.38;4.03;;;;;;;9.03;73.04;102154.59;2073196;28;20133;-72
2022/02/12 03:59:01;;;;;;;12.10;3.75;;;;;;;9.03;73.04;102155.50;2073317;28;20057;-73
2022/02/12 04:00:03;;;;;;;4.70;2.80;;;;;;;9.03;73.07;102157.22;2065238;28;20514;-73
2022/02/12 04:01:13;;;;;;;4.78;3.03;;;;;;;9.00;72.99;102157.97;2072460;28;20517;-74
2022/02/12 04:02:15;;;;;;;6.30;3.47;;;;;;;9.01;73.02;102156.25;2072878;28;20068;-72
2022/02/12 04:03:17;;;;;;;;;;;;;;;9.02;73.11;102150.16;2065749;28;20042;-73
2022/02/12 04:04:19;;;;;;;7.82;3.30;;;;;;;8.99;72.84;102157.94;2073457;28;19929;-73
2022/02/12 04:05:22;;;;;;;11.95;3.45;;;;;;;8.97;73.20;102154.31;2065255;28;20042;-73
2022/02/12 04:06:23;;;;;;;8.10;3.65;;;;;;;8.96;73.21;102157.78;2064862;28;20077;-73
2022/02/12 04:07:25;;;;;;;;;;;;;;;8.95;73.00;102159.50;2073692;28;20054;-73
2022/02/12 04:08:27;;;;;;;7.65;4.63;;;;;;;8.93;73.13;102155.91;2073049;28;19928;-73
2022/02/12 04:09:32;;;;;;;8.05;3.50;;;;;;;8.97;73.15;102156.94;2072443;28;20383;-73
2022/02/12 04:10:35;;;;;;;7.35;3.58;;;;;;;8.96;73.13;102161.31;2080549;28;20116;-73
2022/02/12 04:11:58;;;;;;;8.15;2.75;;;;;;;8.97;73.28;102152.59;2071439;28;20121;-73
2022/02/12 04:12:59;;;;;;;6.97;3.30;;;;;;;9.00;73.27;102160.59;2073193;28;20052;-72
2022/02/12 04:14:02;;;;;;;6.88;3.20;;;;;;;9.02;73.24;102158.94;2072894;28;20431;-74
2022/02/12 04:15:05;;;;;;;6.85;3.72;;;;;;;9.03;73.30;102160.75;2073024;28;20042;-73
2022/02/12 04:16:08;;;;;;;7.30;3.90;;;;;;;9.04;73.19;102157.28;2073210;28;20046;-73
2022/02/12 04:17:10;;;;;;;7.30;2.88;;;;;;;9.04;73.20;102156.38;2080631;28;20045;-73
2022/02/12 04:18:13;;;;;;;11.05;3.92;;;;;;;9.04;73.20;102162.56;2079324;28;20535;-73
2022/02/12 04:19:14;;;;;;;5.30;3.25;;;;;;;9.02;72.91;102166.84;2080421;28;20430;-73
2022/02/12 04:20:19;;;;;;;6.80;3.58;;;;;;;9.00;73.05;102157.97;2072447;28;20042;-73
2022/02/12 04:21:20;;;;;;;7.78;3.13;;;;;;;8.99;73.26;102160.56;2072812;28;20045;-73
2022/02/12 04:22:22;;;;;;;;;;;;;;;8.99;73.03;102157.94;2081129;28;20042;-73
2022/02/12 04:23:24;;;;;;;6.32;3.08;;;;;;;8.95;73.14;102159.50;2072744;28;20011;-73
2022/02/12 04:24:26;;;;;;;7.07;3.45;;;;;;;8.96;73.05;102163.03;2072651;28;20033;-73
2022/02/12 04:25:28;;;;;;;4.85;2.67;;;;;;;8.92;73.00;102162.03;2064398;28;20042;-73
2022/02/12 04:26:33;;;;;;;7.47;3.55;;;;;;;8.89;72.89;102171.50;2056825;28;20098;-73
2022/02/12 04:27:37;;;;;;;6.70;3.30;;;;;;;8.87;72.88;102162.63;2056555;28;20050;-73
2022/02/12 04:28:39;;;;;;;5.28;3.35;;;;;;;8.85;73.00;102169.56;2064875;28;20042;-73
2022/02/12 04:29:41;;;;;;;;;;;;;;;8.87;72.91;102158.25;2065027;28;20069;-72
2022/02/12 04:30:42;;;;;;;6.07;3.28;;;;;;;8.83;73.10;102169.50;2064135;28;19977;-74
2022/02/12 04:31:46;;;;;;;5.43;2.90;;;;;;;8.82;73.01;102170.31;2064602;28;20195;-73
2022/02/12 04:32:47;;;;;;;5.65;3.45;;;;;;;8.79;73.00;102172.84;2064508;28;20073;-73
2022/02/12 04:33:50;;;;;;;6.68;2.88;;;;;;;8.76;72.96;102165.69;2064694;28;20070;-73
2022/02/12 04:34:52;;;;;;;6.15;3.10;;;;;;;8.76;73.09;102176.22;2073170;28;20042;-73
2022/02/12 04:35:56;;;;;;;6.25;3.10;;;;;;;8.75;73.39;102178.78;2072515;28;20045;-73
2022/02/12 04:36:59;;;;;;;8.75;3.42;;;;;;;8.73;73.02;102169.91;2072546;28;20042;-73
2022/02/12 04:38:00;;;;;;;8.60;3.58;;;;;;;8.74;73.27;102172.59;2073098;28;20172;-73
2022/02/12 04:39:03;;;;;;;6.18;3.58;;;;;;;8.73;73.33;102178.69;2073081;28;20092;-73
2022/02/12 04:40:07;;;;;;;7.85;3.13;;;;;;;8.73;73.02;102176.06;2072645;28;20095;-73
2022/02/12 04:41:10;;;;;;;8.10;2.97;;;;;;;8.71;73.13;102185.66;2064164;28;20069;-73
2022/02/12 04:42:11;;;;;;;5.78;3.15;;;;;;;8.71;73.26;102180.38;2056730;28;20050;-73
2022/02/12 04:43:16;;;;;;;10.48;3.60;;;;;;;8.72;73.08;102178.66;2064107;28;20039;-74
2022/02/12 04:44:17;;;;;;;5.95;3.22;;;;;;;8.72;73.17;102187.44;2064235;28;20062;-73
2022/02/12 04:45:20;;;;;;;;;;;;;;;8.74;73.07;102184.88;2064922;28;20038;-73
2022/02/12 04:46:21;;;;;;;7.43;3.10;;;;;;;8.72;72.95;102178.66;2073056;28;20285;-73
2022/02/12 04:47:24;;;;;;;7.38;2.92;;;;;;;8.71;72.96;102180.38;2055465;28;20050;-73
2022/02/12 04:48:26;;;;;;;5.20;2.55;;;;;;;8.69;72.80;102175.84;2056938;28;20054;-73
2022/02/12 04:49:28;;;;;;;4.82;2.83;;;;;;;8.65;73.03;102182.72;2073059;28;20042;-73
2022/02/12 04:50:31;;;;;;;4.35;2.65;;;;;;;8.63;72.94;102184.38;2073167;28;20041;-73
2022/02/12 04:51:33;;;;;;;4.25;2.70;;;;;;;8.62;73.07;102179.94;2073036;28;20069;-73
2022/02/12 04:52:56;;;;;;;5.15;3.40;;;;;;;8.59;73.07;102182.44;2072621;28;20070;-73
2022/02/12 04:53:58;;;;;;;15.65;4.30;;;;;;;8.56;73.17;102186.66;2056384;28;20118;-73
2022/02/12 04:55:01;;;;;;;7.47;3.38;;;;;;;8.53;73.28;102179.53;2048906;28;20074;-73
2022/02/12 04:56:03;;;;;;;16.80;8.43;;;;;;;8.53;73.30;102181.25;2056528;28;20051;-73
2022/02/12 04:57:08;;;;;;;13.60;7.13;;;;;;;8.50;73.38;102183.75;2056338;28;20454;-73
2022/02/12 04:58:32;;;;;;;12.25;7.63;;;;;;;8.45;73.26;102186.16;2062927;28;20042;-73
2022/02/12 04:59:34;;;;;;;16.02;9.25;;;;;;;8.42;73.38;102178.13;2064142;28;20046;-73
2022/02/12 05:00:37;;;;;;;14.90;8.30;;;;;;;8.42;73.77;102186.00;2056384;28;20073;-73
2022/02/12 05:01:38;;;;;;;13.90;8.55;;;;;;;8.42;73.57;102183.38;2056293;28;20089;-73
2022/02/12 05:02:41;;;;;;;13.52;8.13;;;;;;;8.43;73.75;102185.19;2064370;28;20046;-73
2022/02/12 05:03:43;;;;;;;14.27;8.07;;;;;;;8.46;73.59;102189.69;2063774;28;20066;-73